sensor_id;sensor_type;location;lat;lon;timestamp;pressure;altitude;pressure_sealevel;temperature;humidity
22018;BME280;11173;51.050;7.108;2023-07-22T00:08:21;99390.56;;;13.04;60.94
22018;BME280;11173;51.050;7.108;2023-07-22T00:18:23;99392.97;;;12.89;61.19
22018;BME280;11173;51.050;7.108;2023-07-22T00:28:24;99388.28;;;12.86;62.09
22018;BME280;11173;51.050;7.108;2023-07-22T00:38:24;99384.25;;;12.87;62.04
22018;BME280;11173;51.050;7.108;2023-07-22T00:48:24;99388.06;;;12.93;62.44
22018;BME280;11173;51.050;7.108;2023-07-22T00:58:25;99372.44;;;13.09;63.11
22018;BME280;11173;51.050;7.108;2023-07-22T01:08:25;99374.13;;;13.19;62.41
22018;BME280;11173;51.050;7.108;2023-07-22T01:18:25;99380.06;;;13.21;62.61
22018;BME280;11173;51.050;7.108;2023-07-22T01:28:26;99377.06;;;13.28;63.16
22018;BME280;11173;51.050;7.108;2023-07-22T01:38:26;99369.91;;;13.40;63.15
22018;BME280;11173;51.050;7.108;2023-07-22T01:48:26;99368.22;;;13.43;63.21
22018;BME280;11173;51.050;7.108;2023-07-22T01:58:27;99351.22;;;13.50;63.49
22018;BME280;11173;51.050;7.108;2023-07-22T02:08:27;99358.16;;;13.58;63.19
22018;BME280;11173;51.050;7.108;2023-07-22T02:18:27;99351.91;;;13.54;62.90
22018;BME280;11173;51.050;7.108;2023-07-22T02:28:28;99354.00;;;13.37;63.12
22018;BME280;11173;51.050;7.108;2023-07-22T02:38:28;99353.91;;;13.28;62.95
22018;BME280;11173;51.050;7.108;2023-07-22T02:48:29;99357.34;;;13.06;63.22
22018;BME280;11173;51.050;7.108;2023-07-22T02:58:29;99368.06;;;12.95;64.39
22018;BME280;11173;51.050;7.108;2023-07-22T03:08:29;99371.69;;;13.08;65.10
22018;BME280;11173;51.050;7.108;2023-07-22T03:18:30;99362.53;;;13.33;64.76
22018;BME280;11173;51.050;7.108;2023-07-22T03:28:30;99365.66;;;13.48;64.29
22018;BME280;11173;51.050;7.108;2023-07-22T03:38:31;99359.84;;;13.43;64.04
22018;BME280;11173;51.050;7.108;2023-07-22T03:48:31;99358.06;;;13.36;64.22
22018;BME280;11173;51.050;7.108;2023-07-22T03:58:31;99374.81;;;13.23;64.01
22018;BME280;11173;51.050;7.108;2023-07-22T04:08:32;99373.59;;;13.24;64.77
22018;BME280;11173;51.050;7.108;2023-07-22T04:18:32;99368.34;;;13.52;65.75
22018;BME280;11173;51.050;7.108;2023-07-22T04:28:34;99365.00;;;13.83;63.44
22018;BME280;11173;51.050;7.108;2023-07-22T04:41:53;99371.25;;;14.35;66.82
22018;BME280;11173;51.050;7.108;2023-07-22T04:51:54;99384.41;;;14.82;66.03
22018;BME280;11173;51.050;7.108;2023-07-22T05:01:54;99373.09;;;15.07;61.68
22018;BME280;11173;51.050;7.108;2023-07-22T05:11:55;99367.50;;;15.17;64.93
22018;BME280;11173;51.050;7.108;2023-07-22T05:21:55;99377.09;;;15.28;64.51
22018;BME280;11173;51.050;7.108;2023-07-22T05:31:55;99363.06;;;15.69;67.66
22018;BME280;11173;51.050;7.108;2023-07-22T05:41:55;99369.13;;;17.00;67.56
22018;BME280;11173;51.050;7.108;2023-07-22T05:51:56;99371.34;;;18.39;65.83
22018;BME280;11173;51.050;7.108;2023-07-22T06:01:56;99372.63;;;19.51;63.85
22018;BME280;11173;51.050;7.108;2023-07-22T06:11:57;99384.66;;;20.17;63.30
22018;BME280;11173;51.050;7.108;2023-07-22T06:21:57;99385.22;;;21.09;64.73
22018;BME280;11173;51.050;7.108;2023-07-22T06:31:57;99382.03;;;21.96;63.54
22018;BME280;11173;51.050;7.108;2023-07-22T06:41:58;99374.53;;;21.56;59.57
22018;BME280;11173;51.050;7.108;2023-07-22T06:51:58;99386.94;;;21.32;62.19
22018;BME280;11173;51.050;7.108;2023-07-22T07:01:59;99387.56;;;21.74;61.73
22018;BME280;11173;51.050;7.108;2023-07-22T07:11:59;99384.56;;;21.89;61.25
22018;BME280;11173;51.050;7.108;2023-07-22T07:22:00;99384.66;;;21.62;60.47
22018;BME280;11173;51.050;7.108;2023-07-22T07:32:01;99396.44;;;21.55;61.79
22018;BME280;11173;51.050;7.108;2023-07-22T07:42:01;99395.69;;;21.55;60.23
22018;BME280;11173;51.050;7.108;2023-07-22T07:52:01;99388.28;;;21.37;60.42
22018;BME280;11173;51.050;7.108;2023-07-22T08:02:02;99399.34;;;21.35;60.40
22018;BME280;11173;51.050;7.108;2023-07-22T08:12:04;99399.50;;;21.52;63.51
22018;BME280;11173;51.050;7.108;2023-07-22T08:22:05;99392.53;;;21.84;60.99
22018;BME280;11173;51.050;7.108;2023-07-22T08:32:06;99381.25;;;21.96;60.03
22018;BME280;11173;51.050;7.108;2023-07-22T08:42:07;99382.59;;;22.00;58.58
22018;BME280;11173;51.050;7.108;2023-07-22T08:52:09;99382.41;;;21.46;57.38
22018;BME280;11173;51.050;7.108;2023-07-22T09:02:12;99383.16;;;21.09;55.30
22018;BME280;11173;51.050;7.108;2023-07-22T09:12:14;99384.25;;;20.91;53.08
22018;BME280;11173;51.050;7.108;2023-07-22T09:22:14;99380.38;;;20.68;54.52
22018;BME280;11173;51.050;7.108;2023-07-22T09:32:14;99376.13;;;20.78;50.44
22018;BME280;11173;51.050;7.108;2023-07-22T09:42:24;99386.19;;;20.79;50.13
22018;BME280;11173;51.050;7.108;2023-07-22T09:52:25;99373.91;;;21.14;53.29
22018;BME280;11173;51.050;7.108;2023-07-22T10:02:26;99366.16;;;21.41;52.50
22018;BME280;11173;51.050;7.108;2023-07-22T10:12:26;99368.59;;;21.54;51.70
22018;BME280;11173;51.050;7.108;2023-07-22T10:22:28;99366.22;;;21.84;53.61
22018;BME280;11173;51.050;7.108;2023-07-22T10:32:33;99350.28;;;22.41;54.36
22018;BME280;11173;51.050;7.108;2023-07-22T10:42:34;99338.06;;;22.95;55.26
22018;BME280;11173;51.050;7.108;2023-07-22T10:52:39;99338.00;;;22.83;47.98
22018;BME280;11173;51.050;7.108;2023-07-22T11:02:40;99323.41;;;22.25;46.95
22018;BME280;11173;51.050;7.108;2023-07-22T11:12:45;99321.50;;;22.05;45.61
22018;BME280;11173;51.050;7.108;2023-07-22T11:22:46;99313.53;;;21.60;46.44
22018;BME280;11173;51.050;7.108;2023-07-22T11:32:46;99303.03;;;21.35;46.60
22018;BME280;11173;51.050;7.108;2023-07-22T11:42:47;99290.78;;;21.17;46.85
22018;BME280;11173;51.050;7.108;2023-07-22T11:52:51;99274.78;;;21.14;41.61
22018;BME280;11173;51.050;7.108;2023-07-22T12:02:51;99277.69;;;21.25;47.61
22018;BME280;11173;51.050;7.108;2023-07-22T12:13:00;99278.94;;;21.56;43.86
22018;BME280;11173;51.050;7.108;2023-07-22T12:23:01;99254.94;;;22.06;45.43
22018;BME280;11173;51.050;7.108;2023-07-22T12:33:01;99249.44;;;22.51;43.92
22018;BME280;11173;51.050;7.108;2023-07-22T12:43:01;99250.47;;;22.82;43.09
22018;BME280;11173;51.050;7.108;2023-07-22T12:53:02;99231.91;;;23.03;43.33
22018;BME280;11173;51.050;7.108;2023-07-22T13:03:03;99226.47;;;23.22;41.87
22018;BME280;11173;51.050;7.108;2023-07-22T13:13:04;99223.88;;;23.25;42.28
22018;BME280;11173;51.050;7.108;2023-07-22T13:23:04;99216.38;;;23.38;41.59
22018;BME280;11173;51.050;7.108;2023-07-22T13:33:04;99210.94;;;23.46;40.55
22018;BME280;11173;51.050;7.108;2023-07-22T13:43:05;99208.53;;;23.67;41.37
22018;BME280;11173;51.050;7.108;2023-07-22T13:53:05;99193.97;;;23.82;41.03
22018;BME280;11173;51.050;7.108;2023-07-22T14:03:06;99182.47;;;24.10;42.08
22018;BME280;11173;51.050;7.108;2023-07-22T14:13:06;99164.53;;;24.27;39.94
22018;BME280;11173;51.050;7.108;2023-07-22T14:23:06;99154.47;;;24.20;35.00
22018;BME280;11173;51.050;7.108;2023-07-22T14:33:07;99146.94;;;24.28;41.02
22018;BME280;11173;51.050;7.108;2023-07-22T14:43:07;99150.56;;;24.23;41.65
22018;BME280;11173;51.050;7.108;2023-07-22T14:53:08;99141.91;;;24.04;41.11
22018;BME280;11173;51.050;7.108;2023-07-22T15:03:08;99127.63;;;24.10;40.23
22018;BME280;11173;51.050;7.108;2023-07-22T15:13:09;99125.75;;;24.24;37.95
22018;BME280;11173;51.050;7.108;2023-07-22T15:23:09;99126.53;;;24.24;39.20
22018;BME280;11173;51.050;7.108;2023-07-22T15:33:09;99116.88;;;24.33;38.81
22018;BME280;11173;51.050;7.108;2023-07-22T15:43:10;99113.09;;;24.19;35.75
22018;BME280;11173;51.050;7.108;2023-07-22T15:53:10;99107.53;;;24.02;38.40
22018;BME280;11173;51.050;7.108;2023-07-22T16:03:11;99114.22;;;24.05;34.24
22018;BME280;11173;51.050;7.108;2023-07-22T16:13:12;99122.88;;;23.82;35.67
22018;BME280;11173;51.050;7.108;2023-07-22T16:23:12;99119.78;;;23.80;36.16
22018;BME280;11173;51.050;7.108;2023-07-22T16:33:13;99114.09;;;23.80;35.59
22018;BME280;11173;51.050;7.108;2023-07-22T16:43:13;99122.19;;;23.70;36.54
22018;BME280;11173;51.050;7.108;2023-07-22T16:53:14;99110.91;;;23.48;36.34
22018;BME280;11173;51.050;7.108;2023-07-22T17:03:15;99121.88;;;23.21;35.38
22018;BME280;11173;51.050;7.108;2023-07-22T17:13:16;99108.50;;;22.82;36.84
22018;BME280;11173;51.050;7.108;2023-07-22T17:23:16;99096.91;;;22.74;35.65
22018;BME280;11173;51.050;7.108;2023-07-22T17:33:17;99094.09;;;22.69;37.81
22018;BME280;11173;51.050;7.108;2023-07-22T17:43:18;99080.41;;;22.56;36.61
22018;BME280;11173;51.050;7.108;2023-07-22T17:53:18;99073.19;;;22.10;37.08
22018;BME280;11173;51.050;7.108;2023-07-22T18:03:19;99098.97;;;21.95;37.95
22018;BME280;11173;51.050;7.108;2023-07-22T18:13:19;99107.44;;;21.83;38.72
22018;BME280;11173;51.050;7.108;2023-07-22T18:23:19;99095.28;;;21.60;40.02
22018;BME280;11173;51.050;7.108;2023-07-22T18:33:20;99092.59;;;21.40;41.32
22018;BME280;11173;51.050;7.108;2023-07-22T18:43:21;99103.84;;;21.17;41.07
22018;BME280;11173;51.050;7.108;2023-07-22T18:53:22;99096.81;;;21.01;41.91
22018;BME280;11173;51.050;7.108;2023-07-22T19:03:22;99109.88;;;20.88;42.62
22018;BME280;11173;51.050;7.108;2023-07-22T19:13:25;99096.63;;;20.73;43.28
22018;BME280;11173;51.050;7.108;2023-07-22T19:23:26;99116.09;;;20.60;43.67
22018;BME280;11173;51.050;7.108;2023-07-22T19:33:27;99108.25;;;20.43;43.76
22018;BME280;11173;51.050;7.108;2023-07-22T19:43:27;99114.06;;;20.29;44.57
22018;BME280;11173;51.050;7.108;2023-07-22T19:53:27;99113.34;;;20.08;45.10
22018;BME280;11173;51.050;7.108;2023-07-22T20:03:29;99109.47;;;19.84;45.28
22018;BME280;11173;51.050;7.108;2023-07-22T20:13:30;99100.78;;;19.62;45.62
22018;BME280;11173;51.050;7.108;2023-07-22T20:23:30;99112.38;;;19.43;46.42
22018;BME280;11173;51.050;7.108;2023-07-22T20:33:31;99111.88;;;19.24;47.36
22018;BME280;11173;51.050;7.108;2023-07-22T20:43:33;99104.16;;;19.04;47.79
22018;BME280;11173;51.050;7.108;2023-07-22T20:53:33;99116.25;;;19.05;48.10
22018;BME280;11173;51.050;7.108;2023-07-22T21:03:34;99114.88;;;19.00;48.42
22018;BME280;11173;51.050;7.108;2023-07-22T21:13:34;99113.47;;;18.90;49.04
22018;BME280;11173;51.050;7.108;2023-07-22T21:23:35;99103.28;;;18.78;48.08
22018;BME280;11173;51.050;7.108;2023-07-22T21:33:35;99096.91;;;18.62;47.80
22018;BME280;11173;51.050;7.108;2023-07-22T21:43:36;99088.06;;;18.55;49.02
22018;BME280;11173;51.050;7.108;2023-07-22T21:53:36;99073.47;;;18.41;49.21
22018;BME280;11173;51.050;7.108;2023-07-22T22:03:37;99070.78;;;18.32;48.77
22018;BME280;11173;51.050;7.108;2023-07-22T22:13:37;99064.16;;;18.20;49.19
22018;BME280;11173;51.050;7.108;2023-07-22T22:23:38;99058.25;;;18.18;49.52
22018;BME280;11173;51.050;7.108;2023-07-22T22:33:38;99050.69;;;18.09;47.48
22018;BME280;11173;51.050;7.108;2023-07-22T22:43:38;99045.53;;;18.08;48.62
22018;BME280;11173;51.050;7.108;2023-07-22T22:53:39;99040.78;;;17.99;49.12
22018;BME280;11173;51.050;7.108;2023-07-22T23:03:40;99039.03;;;17.87;49.30
22018;BME280;11173;51.050;7.108;2023-07-22T23:13:40;99031.44;;;17.78;50.09
22018;BME280;11173;51.050;7.108;2023-07-22T23:23:41;99026.41;;;17.67;50.74
22018;BME280;11173;51.050;7.108;2023-07-22T23:33:46;99033.69;;;17.59;51.86
22018;BME280;11173;51.050;7.108;2023-07-22T23:43:47;99024.91;;;17.57;52.51
22018;BME280;11173;51.050;7.108;2023-07-22T23:53:47;99010.25;;;17.53;52.74
